createdAt,value
2017-09-20T00:02:07.912Z,66.50
2017-09-20T00:04:35.082Z,66.10
2017-09-20T00:07:01.536Z,66.10
2017-09-20T00:09:28.024Z,66.00
2017-09-20T00:11:57.475Z,67.10
2017-09-20T00:14:23.976Z,66.40
2017-09-20T00:16:50.423Z,65.80
2017-09-20T00:19:16.844Z,65.70
2017-09-20T00:21:43.241Z,65.80
2017-09-20T00:24:09.779Z,65.60
2017-09-20T00:26:36.880Z,65.90
2017-09-20T00:29:03.319Z,65.90
2017-09-20T00:31:29.779Z,66.20
2017-09-20T00:33:56.280Z,65.50
2017-09-20T00:36:23.679Z,66.50
2017-09-20T00:38:50.903Z,66.30
2017-09-20T00:41:17.395Z,66.30
2017-09-20T00:43:44.613Z,66.70
2017-09-20T00:46:11.050Z,66.70
2017-09-20T00:48:37.500Z,66.70
2017-09-20T00:51:04.767Z,67.00
2017-09-20T00:53:31.237Z,67.00
2017-09-20T00:55:57.679Z,66.90
2017-09-20T00:58:24.210Z,66.80
2017-09-20T01:00:50.679Z,66.90
2017-09-20T01:03:17.874Z,67.80
2017-09-20T01:05:44.929Z,67.70
2017-09-20T01:08:12.184Z,68.00
2017-09-20T01:10:38.648Z,67.60
2017-09-20T01:13:05.124Z,67.90
2017-09-20T01:15:31.576Z,67.90
2017-09-20T01:17:58.011Z,68.20
2017-09-20T01:20:36.880Z,68.20
2017-09-20T01:23:15.583Z,68.10
2017-09-20T01:25:43.195Z,68.20
2017-09-20T01:28:09.642Z,68.40
2017-09-20T01:30:36.087Z,68.40
2017-09-20T01:33:02.543Z,68.50
2017-09-20T01:35:29.065Z,68.60
2017-09-20T01:37:56.261Z,68.60
2017-09-20T01:40:23.457Z,68.30
2017-09-20T01:42:49.908Z,68.90
2017-09-20T01:45:16.328Z,68.60
2017-09-20T01:47:42.768Z,69.00
2017-09-20T01:50:09.204Z,69.20
2017-09-20T01:52:35.868Z,69.20
2017-09-20T01:55:02.323Z,69.40
2017-09-20T01:57:29.638Z,69.40
2017-09-20T01:59:56.811Z,69.60
2017-09-20T02:02:23.291Z,69.70
2017-09-20T02:04:49.752Z,70.50
2017-09-20T02:07:16.158Z,69.90
2017-09-20T02:09:43.359Z,70.00
2017-09-20T02:12:09.810Z,69.90
2017-09-20T02:14:37.034Z,69.90
2017-09-20T02:17:03.475Z,69.90
2017-09-20T02:19:29.892Z,70.10
2017-09-20T02:21:56.307Z,70.00
2017-09-20T02:24:22.737Z,69.90
2017-09-20T02:26:49.168Z,70.30
2017-09-20T02:29:15.572Z,70.50
2017-09-20T02:31:42.006Z,70.50
2017-09-20T02:34:08.447Z,70.30
2017-09-20T02:36:34.919Z,70.30
2017-09-20T02:39:01.387Z,70.50
2017-09-20T02:41:29.152Z,70.20
2017-09-20T02:43:56.350Z,70.50
2017-09-20T02:46:22.838Z,70.50
2017-09-20T02:48:50.049Z,70.90
2017-09-20T02:51:16.497Z,70.90
2017-09-20T02:53:42.923Z,71.00
2017-09-20T02:56:09.478Z,70.90
2017-09-20T02:58:36.839Z,71.20
2017-09-20T03:01:03.353Z,70.90
2017-09-20T03:03:29.887Z,70.80
2017-09-20T03:05:57.088Z,70.90
2017-09-20T03:08:23.608Z,70.90
2017-09-20T03:10:50.061Z,71.10
2017-09-20T03:13:16.520Z,71.20
2017-09-20T03:15:42.934Z,71.30
2017-09-20T03:18:10.311Z,71.30
2017-09-20T03:20:36.734Z,71.30
2017-09-20T03:23:03.141Z,71.30
2017-09-20T03:25:30.340Z,71.40
2017-09-20T03:27:56.775Z,71.40
2017-09-20T03:30:23.349Z,71.10
2017-09-20T03:32:49.792Z,71.50
2017-09-20T03:35:16.199Z,71.40
2017-09-20T03:37:42.620Z,71.40
2017-09-20T03:40:09.044Z,72.00
2017-09-20T03:42:35.494Z,71.30
2017-09-20T03:45:01.919Z,71.40
2017-09-20T03:47:29.847Z,71.60
2017-09-20T03:49:56.259Z,71.60
2017-09-20T03:52:22.689Z,71.80
2017-09-20T03:54:49.128Z,71.40
2017-09-20T03:57:15.559Z,71.60
2017-09-20T03:59:42.036Z,71.50
2017-09-20T04:02:08.523Z,71.50
2017-09-20T04:04:34.977Z,71.60
2017-09-20T04:07:02.935Z,71.60
2017-09-20T04:09:29.410Z,71.60
2017-09-20T04:11:55.827Z,71.40
2017-09-20T04:14:22.255Z,71.50
2017-09-20T04:16:48.666Z,71.50
2017-09-20T04:19:15.071Z,71.50
2017-09-20T04:21:42.237Z,71.30
2017-09-20T04:24:09.487Z,71.30
2017-09-20T04:26:35.925Z,71.30
2017-09-20T04:29:02.442Z,71.40
2017-09-20T04:31:29.618Z,71.50
2017-09-20T04:33:56.014Z,71.50
2017-09-20T04:36:22.528Z,71.60
2017-09-20T04:38:49.727Z,71.70
2017-09-20T04:41:16.161Z,71.70
2017-09-20T04:43:42.631Z,71.70
2017-09-20T04:46:09.054Z,71.90
2017-09-20T04:48:35.492Z,71.40
2017-09-20T04:51:01.891Z,71.20
2017-09-20T04:53:29.099Z,71.50
2017-09-20T04:55:56.351Z,71.10
2017-09-20T04:58:22.795Z,71.20
2017-09-20T05:00:50.026Z,71.40
2017-09-20T05:03:16.463Z,71.40
2017-09-20T05:05:42.900Z,71.30
2017-09-20T05:08:09.312Z,71.20
2017-09-20T05:10:35.755Z,71.20
2017-09-20T05:13:02.163Z,71.50
2017-09-20T05:15:28.745Z,71.20
2017-09-20T05:17:55.175Z,71.20
2017-09-20T05:20:21.627Z,71.30
2017-09-20T05:22:48.080Z,71.40
2017-09-20T05:25:14.531Z,71.20
2017-09-20T05:27:42.294Z,70.80
2017-09-20T05:33:09.428Z,71.00
2017-09-20T05:35:36.887Z,71.30
2017-09-20T05:38:03.410Z,71.30
2017-09-20T05:40:30.000Z,71.40
2017-09-20T05:42:56.464Z,71.20
2017-09-20T05:45:23.041Z,71.20
2017-09-20T05:47:49.508Z,71.20
2017-09-20T05:50:16.026Z,71.30
2017-09-20T05:52:42.436Z,72.10
2017-09-20T05:55:09.595Z,71.80
2017-09-20T05:57:36.134Z,71.80
2017-09-20T06:00:02.667Z,71.60
2017-09-20T06:02:29.196Z,71.80
2017-09-20T06:04:55.646Z,71.70
2017-09-20T06:07:22.094Z,71.80
2017-09-20T06:09:48.823Z,71.90
2017-09-20T06:12:15.351Z,71.80
2017-09-20T06:14:41.863Z,71.60
2017-09-20T06:17:09.028Z,71.70
2017-09-20T06:19:35.632Z,71.70
2017-09-20T06:22:02.840Z,71.80
2017-09-20T06:24:29.412Z,71.80
2017-09-20T06:26:56.606Z,72.00
2017-09-20T06:29:23.618Z,72.00
2017-09-20T06:31:50.100Z,71.70
2017-09-20T06:34:16.634Z,71.60
2017-09-20T06:36:43.317Z,71.90
2017-09-20T06:39:10.003Z,72.30
2017-09-20T06:41:36.617Z,71.80
2017-09-20T06:44:04.145Z,72.60
2017-09-20T06:46:30.805Z,71.80
2017-09-20T06:48:57.247Z,71.30
2017-09-20T06:51:24.494Z,71.30
2017-09-20T06:53:50.949Z,71.20
2017-09-20T06:56:17.463Z,71.50
2017-09-20T06:58:43.981Z,70.80
2017-09-20T07:01:11.966Z,70.80
2017-09-20T07:03:39.115Z,71.90
2017-09-20T07:06:05.577Z,71.10
2017-09-20T07:08:32.237Z,70.60
2017-09-20T07:10:58.666Z,70.80
2017-09-20T07:13:25.155Z,70.60
2017-09-20T07:15:52.462Z,71.20
2017-09-20T07:18:18.940Z,71.20
2017-09-20T07:20:45.358Z,70.80
2017-09-20T07:23:11.786Z,69.00
2017-09-20T07:25:38.214Z,69.80
2017-09-20T07:28:04.651Z,70.10
2017-09-20T07:30:31.171Z,69.40
2017-09-20T07:32:57.694Z,69.60
2017-09-20T07:35:24.222Z,69.50
2017-09-20T07:37:50.686Z,69.20
2017-09-20T07:40:17.102Z,69.60
2017-09-20T07:42:43.532Z,69.00
2017-09-20T07:45:09.973Z,69.10
2017-09-20T07:47:36.464Z,69.50
2017-09-20T07:50:03.623Z,67.40
2017-09-20T07:52:30.175Z,67.30
2017-09-20T07:54:56.876Z,68.00
2017-09-20T07:57:23.416Z,68.70
2017-09-20T07:59:50.578Z,67.90
2017-09-20T08:02:17.746Z,67.20
2017-09-20T08:04:44.179Z,67.20
2017-09-20T08:07:10.700Z,66.70
2017-09-20T08:09:37.130Z,66.80
2017-09-20T08:12:03.534Z,68.00
2017-09-20T08:14:30.097Z,67.20
2017-09-20T08:16:56.563Z,67.10
2017-09-20T08:19:23.143Z,67.30
2017-09-20T08:21:49.703Z,67.90
2017-09-20T08:24:16.462Z,67.10
2017-09-20T08:26:43.135Z,66.70
2017-09-20T08:29:09.719Z,65.80
2017-09-20T08:31:36.184Z,66.10
2017-09-20T08:34:02.591Z,66.40
2017-09-20T08:36:29.276Z,65.20
2017-09-20T08:38:56.521Z,64.70
2017-09-20T08:41:22.935Z,64.70
2017-09-20T08:43:49.402Z,65.70
2017-09-20T08:46:15.937Z,64.60
2017-09-20T08:48:42.423Z,64.60
2017-09-20T08:51:08.881Z,66.10
2017-09-20T08:53:35.307Z,65.60
2017-09-20T08:56:01.888Z,64.70
2017-09-20T08:58:28.562Z,66.00
2017-09-20T09:00:55.010Z,66.10
2017-09-20T09:03:21.570Z,66.70
2017-09-20T09:05:48.031Z,65.40
2017-09-20T09:08:14.511Z,65.10
2017-09-20T09:10:40.950Z,64.60
2017-09-20T09:13:07.380Z,64.90
2017-09-20T09:15:34.247Z,65.70
2017-09-20T09:18:00.679Z,65.50
2017-09-20T09:20:27.294Z,65.70
2017-09-20T09:22:53.740Z,64.00
2017-09-20T09:25:20.227Z,63.40
2017-09-20T09:27:47.390Z,63.90
2017-09-20T09:30:14.558Z,66.00
2017-09-20T09:32:41.207Z,66.00
2017-09-20T09:35:07.800Z,63.70
2017-09-20T09:37:34.335Z,63.70
2017-09-20T09:40:00.871Z,64.60
2017-09-20T09:42:28.369Z,63.70
2017-09-20T09:44:55.056Z,63.70
2017-09-20T09:47:21.667Z,62.70
2017-09-20T09:49:48.127Z,64.40
2017-09-20T09:52:15.397Z,62.40
2017-09-20T09:54:41.851Z,62.40
2017-09-20T09:57:08.310Z,61.80
2017-09-20T09:59:34.865Z,62.90
2017-09-20T10:02:01.315Z,62.40
2017-09-20T10:07:06.820Z,61.70
2017-09-20T10:09:33.320Z,61.60
2017-09-20T10:12:00.779Z,62.40
2017-09-20T10:14:27.310Z,62.30
2017-09-20T10:16:57.886Z,61.50
2017-09-20T10:19:24.424Z,60.90
2017-09-20T10:21:50.874Z,61.50
2017-09-20T10:24:18.034Z,59.80
2017-09-20T10:26:44.455Z,59.60
2017-09-20T10:29:10.866Z,60.70
2017-09-20T10:31:37.284Z,57.40
2017-09-20T10:34:03.698Z,58.80
2017-09-20T10:36:31.100Z,59.20
2017-09-20T10:38:57.534Z,59.20
2017-09-20T10:41:24.885Z,58.10
2017-09-20T10:43:51.333Z,58.10
2017-09-20T10:46:17.742Z,58.90
2017-09-20T10:48:44.468Z,58.40
2017-09-20T10:51:10.972Z,59.60
2017-09-20T10:53:38.395Z,60.40
2017-09-20T10:56:04.866Z,60.50
2017-09-20T10:58:32.282Z,59.80
2017-09-20T11:00:58.733Z,59.80
2017-09-20T11:03:25.281Z,58.90
2017-09-20T11:05:51.747Z,60.10
2017-09-20T11:08:18.168Z,59.90
2017-09-20T11:10:45.507Z,59.40
2017-09-20T11:13:12.016Z,59.30
2017-09-20T11:15:39.039Z,60.00
2017-09-20T11:18:05.479Z,60.00
2017-09-20T11:20:32.294Z,58.50
2017-09-20T11:22:59.491Z,58.00
2017-09-20T11:25:26.048Z,58.60
2017-09-20T11:27:52.719Z,57.50
2017-09-20T11:30:19.288Z,57.20
2017-09-20T11:32:45.716Z,57.30
2017-09-20T11:35:12.151Z,58.10
2017-09-20T11:37:38.571Z,56.20
2017-09-20T11:40:05.020Z,56.50
2017-09-20T11:42:31.578Z,58.20
2017-09-20T11:44:58.977Z,59.60
2017-09-20T11:47:25.551Z,59.60
2017-09-20T11:49:52.002Z,60.20
2017-09-20T11:52:18.479Z,60.50
2017-09-20T11:54:44.989Z,59.60
2017-09-20T11:57:11.396Z,60.50
2017-09-20T11:59:37.953Z,62.00
2017-09-20T12:02:05.675Z,60.40
2017-09-20T12:04:32.306Z,60.40
2017-09-20T12:07:00.056Z,59.50
2017-09-20T12:09:26.686Z,60.00
2017-09-20T12:11:53.198Z,59.70
2017-09-20T12:14:20.488Z,58.50
2017-09-20T12:16:47.222Z,58.40
2017-09-20T12:19:13.715Z,59.00
2017-09-20T12:21:40.121Z,59.40
2017-09-20T12:24:06.555Z,57.70
2017-09-20T12:26:33.156Z,57.70
2017-09-20T12:28:59.912Z,57.20
2017-09-20T12:31:26.741Z,54.50
2017-09-20T12:33:53.404Z,53.70
2017-09-20T12:36:20.070Z,53.90
2017-09-20T12:38:47.881Z,54.60
2017-09-20T12:41:15.818Z,54.70
2017-09-20T12:43:42.282Z,54.70
2017-09-20T12:46:09.551Z,56.10
2017-09-20T12:48:35.953Z,55.70
2017-09-20T12:51:03.122Z,55.20
2017-09-20T12:53:29.604Z,55.10
2017-09-20T12:55:56.804Z,55.60
2017-09-20T12:58:24.173Z,54.50
2017-09-20T13:00:50.671Z,54.40
2017-09-20T13:03:18.150Z,55.60
2017-09-20T13:05:44.632Z,55.50
2017-09-20T13:08:11.847Z,56.20
2017-09-20T13:10:39.143Z,55.90
2017-09-20T13:13:06.322Z,55.50
2017-09-20T13:15:33.791Z,56.70
2017-09-20T13:18:00.251Z,56.60
2017-09-20T13:20:26.816Z,56.60
2017-09-20T13:22:54.725Z,56.40
2017-09-20T13:25:21.248Z,56.40
2017-09-20T13:27:48.430Z,56.00
2017-09-20T13:30:14.840Z,56.10
2017-09-20T13:32:42.147Z,55.30
2017-09-20T13:35:08.663Z,55.30
2017-09-20T13:37:35.330Z,55.40
2017-09-20T13:40:03.233Z,56.30
2017-09-20T13:42:30.694Z,55.70
2017-09-20T13:44:57.984Z,55.60
2017-09-20T13:47:25.277Z,54.00
2017-09-20T13:49:51.800Z,53.50
2017-09-20T13:52:18.253Z,53.00
2017-09-20T13:54:44.732Z,53.80
2017-09-20T13:57:11.183Z,54.60
2017-09-20T13:59:37.827Z,51.70
2017-09-20T14:02:05.207Z,51.50
2017-09-20T14:04:33.009Z,50.50
2017-09-20T14:06:59.583Z,49.90
2017-09-20T14:09:26.203Z,51.20
2017-09-20T14:11:52.694Z,50.80
2017-09-20T14:14:19.179Z,52.30
2017-09-20T14:16:45.804Z,52.10
2017-09-20T14:19:13.311Z,52.90
2017-09-20T14:21:40.076Z,52.90
2017-09-20T14:24:09.143Z,52.20
2017-09-20T14:26:37.625Z,53.10
2017-09-20T14:29:04.355Z,53.00
2017-09-20T14:31:31.655Z,53.70
2017-09-20T14:33:58.197Z,53.70
2017-09-20T14:36:24.796Z,52.30
2017-09-20T14:38:51.269Z,52.00
2017-09-20T14:41:17.670Z,53.40
2017-09-20T14:43:45.133Z,53.80
2017-09-20T14:46:11.594Z,53.70
2017-09-20T14:48:38.154Z,54.00
2017-09-20T14:51:05.463Z,52.80
2017-09-20T14:53:32.278Z,52.70
2017-09-20T14:55:59.499Z,51.80
2017-09-20T14:58:27.535Z,52.10
2017-09-20T15:00:54.011Z,52.00
2017-09-20T15:03:20.480Z,53.00
2017-09-20T15:05:47.985Z,52.80
2017-09-20T15:08:14.540Z,51.80
2017-09-20T15:10:41.800Z,51.50
2017-09-20T15:13:09.415Z,51.50
2017-09-20T15:15:35.971Z,51.20
2017-09-20T15:18:02.427Z,51.40
2017-09-20T15:20:29.039Z,51.80
2017-09-20T15:22:56.988Z,51.90
2017-09-20T15:25:24.157Z,51.30
2017-09-20T15:27:50.598Z,51.20
2017-09-20T15:30:17.072Z,52.00
2017-09-20T15:32:44.274Z,54.20
2017-09-20T15:35:10.758Z,54.20
2017-09-20T15:37:38.176Z,54.80
2017-09-20T15:40:05.388Z,54.00
2017-09-20T15:42:32.816Z,52.40
2017-09-20T15:44:59.307Z,52.40
2017-09-20T15:47:29.477Z,52.30
2017-09-20T15:49:56.683Z,47.90
2017-09-20T15:52:23.162Z,47.90
2017-09-20T15:54:49.627Z,47.00
2017-09-20T15:57:16.172Z,47.70
2017-09-20T15:59:42.708Z,47.80
2017-09-20T16:02:09.155Z,48.50
2017-09-20T16:04:35.588Z,49.10
2017-09-20T16:07:02.048Z,48.60
2017-09-20T16:09:29.503Z,49.10
2017-09-20T16:11:56.706Z,49.60
2017-09-20T16:14:24.539Z,48.50
2017-09-20T16:16:51.066Z,48.50
2017-09-20T16:19:17.555Z,50.40
2017-09-20T16:21:44.007Z,50.10
2017-09-20T16:24:10.508Z,50.50
2017-09-20T16:26:37.016Z,50.80
2017-09-20T16:29:03.483Z,50.50
2017-09-20T16:31:30.053Z,50.90
2017-09-20T16:33:56.507Z,50.60
2017-09-20T16:36:23.002Z,51.00
2017-09-20T16:38:49.447Z,51.00
2017-09-20T16:41:15.959Z,50.70
2017-09-20T16:43:42.430Z,50.80
2017-09-20T16:46:08.929Z,51.00
2017-09-20T16:48:35.430Z,51.00
2017-09-20T16:51:01.883Z,51.30
2017-09-20T16:53:29.329Z,51.40
2017-09-20T16:55:55.792Z,51.40
2017-09-20T16:58:22.293Z,51.20
2017-09-20T17:00:48.786Z,51.70
2017-09-20T17:03:15.206Z,51.50
2017-09-20T17:05:41.674Z,51.90
2017-09-20T17:08:08.844Z,52.10
2017-09-20T17:10:35.299Z,52.10
2017-09-20T17:13:01.715Z,52.40
2017-09-20T17:15:29.051Z,52.60
2017-09-20T17:17:56.254Z,52.80
2017-09-20T17:20:22.773Z,52.80
2017-09-20T17:22:49.277Z,52.90
2017-09-20T17:25:15.726Z,53.20
2017-09-20T17:27:43.301Z,53.80
2017-09-20T17:30:09.783Z,53.80
2017-09-20T17:32:36.408Z,53.80
2017-09-20T17:35:02.879Z,53.80
2017-09-20T17:37:29.394Z,53.90
2017-09-20T17:39:56.093Z,54.30
2017-09-20T17:42:22.702Z,54.40
2017-09-20T17:44:49.205Z,55.60
2017-09-20T17:47:16.392Z,56.60
2017-09-20T17:49:43.606Z,56.80
2017-09-20T17:52:10.190Z,56.80
2017-09-20T17:54:36.671Z,57.30
2017-09-20T17:57:03.153Z,57.30
2017-09-20T17:59:29.625Z,57.50
2017-09-20T18:01:56.109Z,58.00
2017-09-20T18:04:22.596Z,58.30
2017-09-20T18:06:49.137Z,58.90
2017-09-20T18:09:15.651Z,58.70
2017-09-20T18:11:42.138Z,58.60
2017-09-20T18:14:08.584Z,58.70
2017-09-20T18:16:35.934Z,59.00
2017-09-20T18:19:04.080Z,59.10
2017-09-20T18:21:32.012Z,59.50
2017-09-20T18:23:58.507Z,59.40
2017-09-20T18:26:25.714Z,59.20
2017-09-20T18:28:52.219Z,59.20
2017-09-20T18:31:18.649Z,59.10
2017-09-20T18:33:45.080Z,59.00
2017-09-20T18:36:11.543Z,59.50
2017-09-20T18:38:38.051Z,59.40
2017-09-20T18:41:04.520Z,59.50
2017-09-20T18:43:30.993Z,59.60
2017-09-20T18:45:58.243Z,60.40
2017-09-20T18:48:25.478Z,60.60
2017-09-20T18:50:51.934Z,61.20
2017-09-20T18:53:19.124Z,61.30
2017-09-20T18:55:45.579Z,61.30
2017-09-20T18:58:12.029Z,61.20
2017-09-20T19:00:39.315Z,60.60
2017-09-20T19:03:05.832Z,60.50
2017-09-20T19:05:33.164Z,60.80
2017-09-20T19:07:59.590Z,60.80
2017-09-20T19:10:26.190Z,60.80
2017-09-20T19:12:52.669Z,60.80
2017-09-20T19:15:19.179Z,60.90
2017-09-20T19:17:46.923Z,61.10
2017-09-20T19:20:13.394Z,61.80
2017-09-20T19:22:39.869Z,61.60
2017-09-20T19:25:06.274Z,62.00
2017-09-20T19:27:32.901Z,62.00
2017-09-20T19:29:59.499Z,61.90
2017-09-20T19:32:26.247Z,61.90
2017-09-20T19:34:52.861Z,62.00
2017-09-20T19:37:19.442Z,62.10
2017-09-20T19:39:45.912Z,62.10
2017-09-20T19:42:13.080Z,62.20
2017-09-20T19:44:40.291Z,61.90
2017-09-20T19:47:06.879Z,61.90
2017-09-20T19:49:33.645Z,62.00
2017-09-20T19:52:00.101Z,61.80
2017-09-20T19:54:26.594Z,61.80
2017-09-20T19:56:53.185Z,62.30
2017-09-20T19:59:20.479Z,62.70
2017-09-20T20:01:46.930Z,62.20
2017-09-20T20:04:13.473Z,62.10
2017-09-20T20:06:39.978Z,62.10
2017-09-20T20:09:06.552Z,62.00
2017-09-20T20:11:33.237Z,62.00
2017-09-20T20:13:59.711Z,62.10
2017-09-20T20:16:26.358Z,62.30
2017-09-20T20:18:52.912Z,62.20
2017-09-20T20:21:20.165Z,62.70
2017-09-20T20:23:46.999Z,62.70
2017-09-20T20:26:14.269Z,63.40
2017-09-20T20:28:41.583Z,62.70
2017-09-20T20:31:08.244Z,62.70
2017-09-20T20:33:34.785Z,63.00
2017-09-20T20:36:03.666Z,62.60
2017-09-20T20:38:30.196Z,63.80
2017-09-20T20:40:56.740Z,63.40
2017-09-20T20:43:23.307Z,63.50
2017-09-20T20:45:49.801Z,64.00
2017-09-20T20:48:16.328Z,64.40
2017-09-20T20:50:42.810Z,64.70
2017-09-20T20:53:10.798Z,64.90
2017-09-20T20:55:37.252Z,64.90
2017-09-20T20:58:03.674Z,65.20
2017-09-20T21:00:30.463Z,65.30
2017-09-20T21:02:57.666Z,65.60
2017-09-20T21:05:24.142Z,65.60
2017-09-20T21:07:50.632Z,65.70
2017-09-20T21:10:17.065Z,65.90
2017-09-20T21:12:43.486Z,65.90
2017-09-20T21:15:10.663Z,66.00
2017-09-20T21:17:37.097Z,66.00
2017-09-20T21:20:03.544Z,65.80
2017-09-20T21:22:30.079Z,65.50
2017-09-20T21:24:56.518Z,65.10
2017-09-20T21:27:23.080Z,64.90
2017-09-20T21:29:49.570Z,64.60
2017-09-20T21:32:15.975Z,64.40
2017-09-20T21:34:43.115Z,64.90
2017-09-20T21:37:10.380Z,64.60
2017-09-20T21:39:36.956Z,64.60
2017-09-20T21:42:03.501Z,64.90
2017-09-20T21:44:30.139Z,64.30
2017-09-20T21:46:56.582Z,64.60
2017-09-20T21:49:23.046Z,64.80
2017-09-20T21:51:50.238Z,64.50
2017-09-20T21:54:17.474Z,64.80
2017-09-20T21:56:43.866Z,64.80
2017-09-20T21:59:11.830Z,66.10
2017-09-20T22:01:38.998Z,66.10
2017-09-20T22:04:05.402Z,66.50
2017-09-20T22:06:32.011Z,66.00
2017-09-20T22:08:58.442Z,66.00
2017-09-20T22:11:24.987Z,65.70
2017-09-20T22:13:51.444Z,66.00
2017-09-20T22:16:30.110Z,66.00
2017-09-20T22:19:08.995Z,66.00
2017-09-20T22:21:48.346Z,66.00
2017-09-20T22:24:28.670Z,65.70
2017-09-20T22:26:54.945Z,65.70
2017-09-20T22:29:22.147Z,66.00
2017-09-20T22:31:48.587Z,65.90
2017-09-20T22:34:15.018Z,66.10
2017-09-20T22:36:41.414Z,66.60
2017-09-20T22:39:07.842Z,66.80
2017-09-20T22:41:34.336Z,66.70
2017-09-20T22:44:01.506Z,67.20
2017-09-20T22:46:28.140Z,67.10
2017-09-20T22:48:54.609Z,68.60
2017-09-20T22:51:21.046Z,69.50
2017-09-20T22:53:47.474Z,70.00
2017-09-20T22:56:13.969Z,70.00
2017-09-20T22:58:41.274Z,68.80
2017-09-20T23:01:07.734Z,68.70
2017-09-20T23:03:34.302Z,68.60
2017-09-20T23:06:01.444Z,68.60
2017-09-20T23:08:28.787Z,68.40
2017-09-20T23:10:56.233Z,68.60
2017-09-20T23:13:23.557Z,68.40
2017-09-20T23:15:51.488Z,68.40
2017-09-20T23:18:18.649Z,68.60
2017-09-20T23:20:45.790Z,68.50
2017-09-20T23:23:12.949Z,68.90
2017-09-20T23:25:39.418Z,68.80
2017-09-20T23:28:05.856Z,68.80
2017-09-20T23:30:32.302Z,68.90
2017-09-20T23:32:58.751Z,68.30
2017-09-20T23:35:26.783Z,68.60
2017-09-20T23:37:54.720Z,68.50
2017-09-20T23:40:21.274Z,68.60
2017-09-20T23:42:47.721Z,68.20
2017-09-20T23:45:14.154Z,68.50
2017-09-20T23:47:40.580Z,68.10
2017-09-20T23:50:07.010Z,68.60
2017-09-20T23:52:33.419Z,68.90
2017-09-20T23:55:00.565Z,68.80
2017-09-20T23:57:27.238Z,68.80
2017-09-20T23:59:53.674Z,68.70
